Login to view Products
 
Tuesday, July 23, 2019 (12:21 UTC)
Al Ain International Airport
ICAO: OMAL
IATA: AAN
  • METAR OMAL 231200Z VRB03KT 9000 NSC 43/20 Q0997 BECMG 35010KT=
  • TAF OMAL 231100Z 2312/2418 36012KT 8000 NSC BECMG 2318/2320 12012KT BECMG 2406/2408 VRB02KT BECMG 2412/2414 05008KT=
D:\Input Parser\Destinations\Final\11\OMALL12181100738138715.txt
1